x

Gulf Of Maine - 78 Nm East Of Portsmouth, Nh (44005) Wave Buoy

1:50 - Wed 24th Aug 2016 All times are EDT. -4 hours from GMT.

  • Sig Wave height 2.6ft
  • Swell Direction
  • Peak Period 4s
  • Average Period 4s
  • Wind
    11mph, 13mph gusts
  • Sea Temp 69°f
  • Air Temp 69°f
  • Sea Pressure 1022.7mb
  • Gulf Of Maine - 78 Nm East Of Portsmouth, Nh
  • Gulf Of Maine - 78 Nm East Of Portsmouth, Nh

More Historic Weather Station data

Upgrade to MSW Pro to gain access to the past 30 days of data for over 8000 Wavebouys and Weather Stations around the globe.

Join Pro

Comparision Forecast

View Surf forecast
   
mer. 08/24 1:50 2.5ft 4s 4s 11 13 mph 1022.7mb 69f 69f
12:50 2.5ft 4s 4s 13 16 mph 1023.1mb 69f 71f
mar. 08/23 11:50 2.5ft 4s 4s 13 16 mph 1023mb 69f 70f
10:50 3ft 4s 4s 18 20 mph 1022.9mb 69f 70f
9:50 2.5ft 4s 4s 18 22 mph 1022.9mb 69f 71f
8:50 2.5ft 3s 4s 18 22 mph 1022.5mb 69f 70f
7:50 2.5ft 9s 4s 20 22 mph 1022.1mb 69f 70f
6:50 2ft 9s 4s 13 16 mph 1022.2mb 69f 70f
5:50 2ft 10s 4s 13 16 mph 1022.2mb 69f 70f
4:50 2ft 9s 4s 13 16 mph 1022.6mb 69f 69f
3:50 2ft 10s 4s 13 16 mph 1023mb 69f 69f
2:50 1.6ft 4s 4s 16 18 mph 1023.3mb 69f 69f
1:50 2ft 5s 4s 13 16 mph 1023.5mb 69f 68f
12:50 2ft 9s 4s 13 16 mph 1023.7mb 69f 68f
11:50 2ft 10s 4s 13
mph
1023.8mb 69f 67f
10:50 2.5ft 10s 4s 13 18 mph 1024mb 69f 67f
9:50 2.5ft 4s 4s 13 16 mph 1023.9mb 69f 67f
8:50 2.5ft 4s 4s 16 18 mph 1023.3mb 69f 66f
7:50 3ft 4s 4s 18 22 mph 1022.8mb 69f 66f
6:50 2.5ft 4s 4s 18 20 mph 1022.3mb 69f 67f
4:50 3ft 5s 4s 18 20 mph 1021mb 68f 66f
3:50 3.5ft 5s 4s 20 25 mph 1020.3mb 68f 66f
2:50 3.5ft 5s 4s 20 22 mph 1019.8mb 68f 66f
1:50 4ft 5s 5s 22 25 mph 1019.4mb 68f 66f
12:50 4ft 5s 5s 20 25 mph 1019mb 68f 66f
lun. 08/22 11:50 4.5ft 5s 5s 22 29 mph 1018.3mb 68f 66f
10:50 4ft 5s 5s 25 27 mph 1017.6mb 68f 66f
9:50 4ft 5s 5s 20 25 mph 1017.6mb 68f 66f
8:50 4ft 5s 4s 20 22 mph 1016.9mb 68f 66f
7:50 4.5ft 5s 4s 22 27 mph 1015mb 69f 66f
6:50 4.5ft 5s 4s 29 34 mph 1013.4mb 69f 67f
5:50 3.5ft 4s 4s 27 31 mph 1012.3mb 70f 67f
4:50 3.5ft 4s 4s 25 31 mph 1010.9mb 71f 69f
3:50 3ft 4s 4s 22 27 mph 1010.1mb 71f 70f
2:50 3ft 4s 4s 22 25 mph 1009.6mb 71f 71f
1:50 3ft 4s 4s 18 20 mph 1009.2mb 71f 71f
12:50 3.5ft 4s 4s 13 16 mph 1009mb 71f 69f
11:50 3.5ft 4s 4s 18 22 mph 1008.8mb 71f 68f
10:50 3.5ft 5s 4s 20 25 mph 1007.9mb 71f 68f
9:50 4ft 4s 4s 20 29 mph 1007mb 71f 69f
8:50 4ft 4s 4s 20 25 mph 1006mb 71f 71f
7:50 3.5ft 4s 4s 20 25 mph 1006.3mb 71f 72f
6:50 2.5ft 8s 4s 20 22 mph 1006.3mb 71f 72f
5:50 2.5ft 4s 4s 16 20 mph 1007mb 71f 71f
4:50 2.5ft 14s 4s 13 16 mph 1007.5mb 71f 71f
3:50 2.5ft 4s 4s 13 16 mph 1008mb 71f 71f
2:50 2.5ft 4s 4s 13 16 mph 1008.4mb 71f 71f
1:50 2.5ft 4s 4s 13 16 mph 1008.8mb 71f 71f
12:50 2.5ft 4s 4s 13 16 mph 1009.7mb 71f 71f
dim. 08/21 10:50 2.5ft 4s 4s 16 18 mph 1011.1mb 71f 71f
9:50 2.5ft 4s 4s 13 16 mph 1012mb 71f 71f
8:50 2.5ft 4s 4s 13 16 mph 1012.8mb 71f 71f
7:50 2.5ft 4s 4s 13 16 mph 1012.6mb 71f 71f
6:50 2ft 14s 4s 13 16 mph 1012.9mb 71f 70f
5:50 2.5ft 4s 4s 13 16 mph 1012.9mb 71f 70f
4:50 2ft 4s 4s 16 18 mph 1012.7mb 71f 69f
3:50 2.5ft 14s 4s 16 18 mph 1013.4mb 71f 68f
2:50 2ft 14s 4s 13 16 mph 1014.1mb 71f 67f
1:50 2ft 12s 4s 13 16 mph 1015mb 71f 67f
12:50 2.5ft 14s 4s 11 16 mph 1015.1mb 71f 67f
11:50 2.5ft 4s 4s 9 11 mph 1016mb 71f 66f
10:50 2.5ft 14s 4s 11 13 mph 1016.1mb 71f 67f
9:50 2.5ft 4s 4s 11 13 mph 1016.4mb 71f 67f
8:50 2.5ft 4s 4s 11 13 mph 1016.4mb 70f 69f
7:50 2.5ft 4s 4s 11 13 mph 1016.6mb 70f 69f
6:50 2.5ft 4s 4s 11 13 mph 1016.2mb 70f 69f
5:50 2.5ft 5s 4s 11 13 mph 1016.1mb 71f 69f
4:50 2.5ft 4s 4s 13 16 mph 1015.6mb 71f 69f
3:50 2.5ft 4s 4s 16 18 mph 1015.6mb 71f 69f
2:50 2.5ft 4s 4s 16 18 mph 1015.7mb 71f 69f
1:50 2.5ft 14s 4s 16 20 mph 1015.8mb 71f 69f
12:50 2.5ft 14s 4s 16 18 mph 1016.1mb 71f 70f
sam. 08/20 11:50 2.5ft 3s 4s 16 18 mph 1016.2mb 71f 70f
10:50 2.5ft 4s 4s 16 20 mph 1016.5mb 72f 70f
9:50 2.5ft 15s 4s 16 18 mph 1016.7mb 72f 70f
8:50 2ft 15s 4s 13 16 mph 1016.9mb 72f 71f
7:50 2ft 3s 4s 13 16 mph 1016.5mb 72f 71f
6:50 1.6ft 15s 4s 11 13 mph 1016.1mb 72f 71f
5:50 2ft 7s 4s 13 16 mph 1015.8mb 72f 71f
4:50 1.6ft 15s 4s 13 16 mph 1016mb 72f 71f
3:50 1.3ft 15s 4s 13
mph
1016.1mb 72f 71f
2:50 1.3ft 14s 5s 11 13 mph 1016.1mb 72f 71f
1:50 1.3ft 15s 6s 11 13 mph 1016.3mb 73f 71f
12:50 1.3ft 14s 5s 7 9 mph 1016.9mb 72f 71f
11:50 1.3ft 14s 5s 9 11 mph 1016.8mb 72f 71f
10:50 1.3ft 14s 5s 9
mph
1016.5mb 72f 71f
9:50 1.3ft 6s 5s 7 9 mph 1016.1mb 71f 71f
8:50 1.3ft 15s 5s 9 11 mph 1015.9mb 71f 71f
7:50 1.3ft 16s 6s 9
mph
1016.2mb 71f 71f
6:50 1.3ft 7s 5s 9 11 mph 1016mb 71f 70f